Scapoli — WDJ7180 — position and weather

sailwx.info

Track history (hours):
 
Tides and Currents Weather Stations Pressure Air Temp Water Temp Dewpoint Dewpoint Depression Visibility Wind Speed Wind Dir Waves Ship Positions

Scapoli

Owner: Moore, Claude B, Del Ray Beach, FL. More information available from US FCC via Universal Licensing System and Coast Guard Vessel Documentation Center.

Last reported at 2018-Jun-08 15:15 UTC. Time now 2018-Jun-18 17:38 UTC.
Position N 41°12' W 072°22'.
Warning: this ship's position is 10 days out of date.

Length 29 m.

Type: Pleasure craft. MMSI: 368004130.

Date/timePositionNaut miles runAvg speedWind from/ knotsBaromVisibWave heightAir tempDewpointWater temp
2018-Jun-08 15:15N 41°12' W 072°22'417.1
2018-Jun-08 15:00N 41°11' W 072°28'73 3.2
2018-Jun-07 16:25N 40°45' W 073°58'513.2
2018-Jun-07 16:00N 40°41' W 074°03'5314.5
2018-Jun-07 12:20N 39°48' W 074°03'615.5
2018-Jun-07 11:58N 39°42' W 074°05'63 2.9
2018-Jun-06 14:35N 39°10' W 075°16'217.4
2018-Jun-06 14:27N 39°12' W 075°17'817.9
2018-Jun-06 14:01N 39°18' W 075°23'918.4
2018-Jun-06 13:31N 39°25' W 075°31'917.1
2018-Jun-06 13:00N 39°33' W 075°33'611.2
2018-Jun-06 12:30N 39°33' W 075°40'510.3
2018-Jun-06 12:00N 39°32' W 075°47'5 9.9
2018-Jun-06 11:30N 39°31' W 075°53'714.0
2018-Jun-06 10:58N 39°26' W 076°00'4 7.0
2018-Jun-06 10:27N 39°23' W 076°01'4 9.2
2018-Jun-06 10:00N 39°22' W 075°55'2 3.0
2018-Jun-06 09:30N 39°22' W 075°53'0 0.0
2018-Jun-06 08:51N 39°22' W 075°53'0 0.0
2018-Jun-06 07:51N 39°22' W 075°53'0 0.0
2018-Jun-06 07:24N 39°22' W 075°53'0 0.0
2018-Jun-06 07:00N 39°22' W 075°53'0 0.0
2018-Jun-06 06:18N 39°22' W 075°53'0 0.0
2018-Jun-06 05:54N 39°22' W 075°53'0 0.0
2018-Jun-06 05:24N 39°22' W 075°53'0 0.0
2018-Jun-06 04:45N 39°22' W 075°53'0 0.0
2018-Jun-06 04:06N 39°22' W 075°53'0 0.0
2018-Jun-06 03:36N 39°22' W 075°53'0 0.0
2018-Jun-06 03:30N 39°22' W 075°53'0 0.0
2018-Jun-06 03:00N 39°22' W 075°53'0 0.0
2018-Jun-06 02:30N 39°22' W 075°53'0 0.0
2018-Jun-06 02:00N 39°22' W 075°53'0 0.0
2018-Jun-06 01:27N 39°22' W 075°53'0 0.0
2018-Jun-05 20:15N 39°22' W 075°53'0 0.0
2018-Jun-05 19:57N 39°22' W 075°53'0 0.0
2018-Jun-05 18:39N 39°22' W 075°53'0 0.0
2018-Jun-05 18:21N 39°22' W 075°53'0 0.0
2018-Jun-05 16:36N 39°22' W 075°53'0 0.0
2018-Jun-05 16:27N 39°22' W 075°53'0 0.0
2018-Jun-05 15:18N 39°22' W 075°53'0 0.0
2018-Jun-05 14:57N 39°22' W 075°53'0 0.0
2018-Jun-05 13:42N 39°22' W 075°53'0 0.0
2018-Jun-05 12:06N 39°22' W 075°53'0 0.0
2018-Jun-05 11:39N 39°22' W 075°53'0 0.0
2018-Jun-05 11:30N 39°22' W 075°53'0 0.0
2018-Jun-05 11:00N 39°22' W 075°53'0 0.0
2018-Jun-05 10:30N 39°22' W 075°53'0 0.0
2018-Jun-05 09:57N 39°22' W 075°53'0 0.0
2018-Jun-05 09:18N 39°22' W 075°53'0 0.0
2018-Jun-05 09:00N 39°22' W 075°53'0 0.0
2018-Jun-05 08:24N 39°22' W 075°53'0 0.0
2018-Jun-05 07:48N 39°22' W 075°53'0 0.0
2018-Jun-05 07:24N 39°22' W 075°53'0 0.0
2018-Jun-05 07:00N 39°22' W 075°53'0 0.0
2018-Jun-05 05:42N 39°22' W 075°53'0 0.0
2018-Jun-05 05:27N 39°22' W 075°53'0 0.0
2018-Jun-05 05:00N 39°22' W 075°53'0 0.0
2018-Jun-05 04:30N 39°22' W 075°53'0 0.0
2018-Jun-05 03:39N 39°22' W 075°53'0 0.0
2018-Jun-05 03:27N 39°22' W 075°53'0 0.0
2018-Jun-05 02:45N 39°22' W 075°53'0 0.0
2018-Jun-05 02:30N 39°22' W 075°53'0 0.0
2018-Jun-05 02:00N 39°22' W 075°53'0 0.0
2018-Jun-05 01:30N 39°22' W 075°53'0 0.0
2018-Jun-05 01:00N 39°22' W 075°53'0 0.0
2018-Jun-05 00:30N 39°22' W 075°53'2 0.4
2018-Jun-04 18:47N 39°22' W 075°56'3011.3
2018-Jun-04 16:07N 39°00' W 076°23'415.1
2018-Jun-04 15:51N 38°56' W 076°24'126 4.3
2018-Jun-03 10:23N 36°51' W 076°18'1 1.7
2018-Jun-03 09:59N 36°50' W 076°18'0 0.0
2018-Jun-03 09:29N 36°50' W 076°18'0 0.0
2018-Jun-03 08:59N 36°50' W 076°18'0 0.0
2018-Jun-03 08:29N 36°50' W 076°18'0 0.0
2018-Jun-03 07:59N 36°50' W 076°18'0 0.0
2018-Jun-03 07:29N 36°50' W 076°18'0 0.0
2018-Jun-03 06:59N 36°50' W 076°18'0 0.0
2018-Jun-03 06:29N 36°50' W 076°18'0 0.0
2018-Jun-03 05:59N 36°50' W 076°18'0 0.0
2018-Jun-03 05:29N 36°50' W 076°18'0 0.0
2018-Jun-03 04:59N 36°50' W 076°18'0 0.0
2018-Jun-03 04:29N 36°50' W 076°18'0 0.0
2018-Jun-03 03:59N 36°50' W 076°18'0 0.0
2018-Jun-03 03:29N 36°50' W 076°18'0 0.0
2018-Jun-03 02:59N 36°50' W 076°18'0 0.0
2018-Jun-03 02:29N 36°50' W 076°18'0 0.0
2018-Jun-03 01:59N 36°50' W 076°18'0 0.0
2018-Jun-03 01:29N 36°50' W 076°18'0 0.0
2018-Jun-03 00:59N 36°50' W 076°18'0 0.0
2018-Jun-03 00:29N 36°50' W 076°18'0 0.0
2018-Jun-02 23:59N 36°50' W 076°18'0 0.0
2018-Jun-02 23:29N 36°50' W 076°18'0 0.0
2018-Jun-02 22:59N 36°50' W 076°18'0 0.0
2018-Jun-02 22:29N 36°50' W 076°18'0 0.0
2018-Jun-02 21:59N 36°50' W 076°18'0 0.0
2018-Jun-02 21:29N 36°50' W 076°18'0 0.0
2018-Jun-02 20:56N 36°50' W 076°18'0 0.0
2018-Jun-02 20:17N 36°50' W 076°18'0 0.0
2018-Jun-02 19:59N 36°50' W 076°18'0 0.0
2018-Jun-02 19:29N 36°50' W 076°18'0 0.0
2018-Jun-02 18:55N 36°50' W 076°18'0 0.0
2018-Jun-02 18:28N 36°50' W 076°18'0 0.0
2018-Jun-02 17:58N 36°50' W 076°18'0 0.0
2018-Jun-02 17:25N 36°50' W 076°18'0 0.0
2018-Jun-02 16:58N 36°50' W 076°18'0 0.0
2018-Jun-02 15:34N 36°50' W 076°18'0 0.0
2018-Jun-02 15:25N 36°50' W 076°18'0 0.0
2018-Jun-02 14:58N 36°50' W 076°18'0 0.0
2018-Jun-02 14:25N 36°50' W 076°18'0 0.0
2018-Jun-02 13:52N 36°50' W 076°18'0 0.0
2018-Jun-02 12:49N 36°50' W 076°18'0 0.0
2018-Jun-02 12:28N 36°50' W 076°18'0 0.0
2018-Jun-02 12:01N 36°50' W 076°18'0 0.0
2018-Jun-02 11:30N 36°50' W 076°18'0 0.0
2018-Jun-02 11:00N 36°50' W 076°18'0 0.0
2018-Jun-02 10:30N 36°50' W 076°18'0 0.0
2018-Jun-02 10:00N 36°50' W 076°18'0 0.0
2018-Jun-02 09:30N 36°50' W 076°18'0 0.0
2018-Jun-02 09:00N 36°50' W 076°18'0 0.0
2018-Jun-02 08:30N 36°50' W 076°18'0 0.0
2018-Jun-02 08:00N 36°50' W 076°18'0 0.0
2018-Jun-02 07:30N 36°50' W 076°18'0 0.0
2018-Jun-02 07:00N 36°50' W 076°18'0 0.0
2018-Jun-02 06:30N 36°50' W 076°18'0 0.0
2018-Jun-02 06:00N 36°50' W 076°18'0 0.0
2018-Jun-02 05:30N 36°50' W 076°18'0 0.0
2018-Jun-02 05:00N 36°50' W 076°18'0 0.0
2018-Jun-02 04:30N 36°50' W 076°18'0 0.0
2018-Jun-02 03:59N 36°50' W 076°18'0 0.0
2018-Jun-02 03:29N 36°50' W 076°18'0 0.0
2018-Jun-02 02:56N 36°50' W 076°18'0 0.0
2018-Jun-02 02:29N 36°50' W 076°18'0 0.0
2018-Jun-02 01:59N 36°50' W 076°18'0 0.0
2018-Jun-02 01:29N 36°50' W 076°18'0 0.0
2018-Jun-02 00:59N 36°50' W 076°18'0 0.0
2018-Jun-02 00:29N 36°50' W 076°18'0 0.0
2018-Jun-01 23:59N 36°50' W 076°18'0 0.0
2018-Jun-01 23:29N 36°50' W 076°18'0 0.0
2018-Jun-01 22:59N 36°50' W 076°18'0 0.0
2018-Jun-01 22:29N 36°50' W 076°18'0 0.0
2018-Jun-01 21:59N 36°50' W 076°18'0 0.0
2018-Jun-01 21:29N 36°50' W 076°18'0 0.0
2018-Jun-01 20:59N 36°50' W 076°18'0 0.0
2018-Jun-01 20:28N 36°50' W 076°18'0 0.0
2018-Jun-01 19:58N 36°50' W 076°18'0 0.0
2018-Jun-01 19:28N 36°50' W 076°18'0 0.0
2018-Jun-01 18:58N 36°50' W 076°18'0 0.0
2018-Jun-01 18:28N 36°50' W 076°18'0 0.0
2018-Jun-01 17:58N 36°50' W 076°18'0 0.0
2018-Jun-01 17:28N 36°50' W 076°18'0 0.0
2018-Jun-01 16:58N 36°50' W 076°18'0 0.0
2018-Jun-01 16:25N 36°50' W 076°18'0 0.0
2018-Jun-01 15:55N 36°50' W 076°18'0 0.0
2018-Jun-01 15:28N 36°50' W 076°18'0 0.0
2018-Jun-01 14:58N 36°50' W 076°18'0 0.0
2018-Jun-01 14:28N 36°50' W 076°18'0 0.0
2018-Jun-01 13:58N 36°50' W 076°18'0 0.0
2018-Jun-01 13:28N 36°50' W 076°18'0 0.0
2018-Jun-01 13:00N 36°50' W 076°18'0 0.0
2018-Jun-01 12:30N 36°50' W 076°18'0 0.0
2018-Jun-01 12:00N 36°50' W 076°18'0 0.0
2018-Jun-01 11:30N 36°50' W 076°18'0 0.0
2018-Jun-01 11:00N 36°50' W 076°18'0 0.0
2018-Jun-01 10:30N 36°50' W 076°18'0 0.0
2018-Jun-01 10:00N 36°50' W 076°18'0 0.0
2018-Jun-01 09:30N 36°50' W 076°18'0 0.0
2018-Jun-01 09:00N 36°50' W 076°18'0 0.0
2018-Jun-01 08:30N 36°50' W 076°18'0 0.0
2018-Jun-01 08:00N 36°50' W 076°18'0 0.0
2018-Jun-01 07:30N 36°50' W 076°18'0 0.0
2018-Jun-01 07:00N 36°50' W 076°18'0 0.0
2018-Jun-01 06:30N 36°50' W 076°18'0 0.0
2018-Jun-01 06:00N 36°50' W 076°18'0 0.0
2018-Jun-01 05:30N 36°50' W 076°18'0 0.0
2018-Jun-01 05:00N 36°50' W 076°18'0 0.0
2018-Jun-01 04:30N 36°50' W 076°18'0 0.0
2018-Jun-01 04:00N 36°50' W 076°18'0 0.0
2018-Jun-01 03:30N 36°50' W 076°18'0 0.0
2018-Jun-01 03:00N 36°50' W 076°18'0 0.0
2018-Jun-01 02:30N 36°50' W 076°18'0 0.0
2018-Jun-01 02:00N 36°50' W 076°18'0 0.0
2018-Jun-01 01:30N 36°50' W 076°18'0 0.0
2018-Jun-01 01:00N 36°50' W 076°18'0 0.0
2018-Jun-01 00:30N 36°50' W 076°18'0 0.0
2018-Jun-01 00:00N 36°50' W 076°18'0 0.0
2018-May-31 23:30N 36°50' W 076°18'0 0.0
2018-May-31 23:00N 36°50' W 076°18'0 0.0
2018-May-31 22:27N 36°50' W 076°18'0 0.0
2018-May-31 22:00N 36°50' W 076°18'0 0.0
2018-May-31 18:38N 36°50' W 076°18'1 6.5
2018-May-31 18:30N 36°49' W 076°17'3 5.4
2018-May-31 18:00N 36°46' W 076°18'4 4.2
2018-May-31 17:01N 36°43' W 076°14'0 0.2
2018-May-31 16:58N 36°43' W 076°14'0 0.0
2018-May-31 16:28N 36°43' W 076°14'112 3.9
2018-May-30 11:34N 34°54' W 076°41'1 9.5
2018-May-30 11:28N 34°53' W 076°41'4 8.2
2018-May-30 11:00N 34°49' W 076°41'6 9.6
2018-May-30 10:25N 34°43' W 076°42'1 3.4
2018-May-30 09:58N 34°43' W 076°40'0 0.0
2018-May-30 09:28N 34°43' W 076°40'0 0.0
2018-May-30 08:58N 34°43' W 076°40'0 0.0
2018-May-30 08:28N 34°43' W 076°40'0 0.0
2018-May-30 07:58N 34°43' W 076°40'0 0.0
2018-May-30 07:28N 34°43' W 076°40'0 0.0
2018-May-30 06:55N 34°43' W 076°40'0 0.0
2018-May-30 06:28N 34°43' W 076°40'0 0.0
2018-May-30 05:58N 34°43' W 076°40'0 0.0
2018-May-30 05:28N 34°43' W 076°40'0 0.0
2018-May-30 04:58N 34°43' W 076°40'0 0.0
2018-May-30 04:28N 34°43' W 076°40'0 0.0
2018-May-30 03:58N 34°43' W 076°40'0 0.0
2018-May-30 03:28N 34°43' W 076°40'0 0.0
2018-May-30 02:58N 34°43' W 076°40'0 0.0
2018-May-30 02:28N 34°43' W 076°40'0 0.0
2018-May-30 01:58N 34°43' W 076°40'0 0.0
2018-May-30 01:28N 34°43' W 076°40'0 0.0
2018-May-30 00:58N 34°43' W 076°40'0 0.0
2018-May-30 00:28N 34°43' W 076°40'0 0.0
2018-May-29 23:58N 34°43' W 076°40'0 0.0
2018-May-29 23:28N 34°43' W 076°40'0 0.0
2018-May-29 22:58N 34°43' W 076°40'0 0.0
2018-May-29 22:28N 34°43' W 076°40'0 0.0
2018-May-29 21:58N 34°43' W 076°40'0 0.0
2018-May-29 21:28N 34°43' W 076°40'0 0.0
2018-May-29 20:58N 34°43' W 076°40'0 0.0
2018-May-29 20:28N 34°43' W 076°40'0 0.0
2018-May-29 19:58N 34°43' W 076°40'0 0.0
2018-May-29 19:28N 34°43' W 076°40'0 0.0
2018-May-29 18:58N 34°43' W 076°40'0 0.0
2018-May-29 18:28N 34°43' W 076°40'0 0.0
2018-May-29 17:58N 34°43' W 076°40'0 0.0
2018-May-29 17:28N 34°43' W 076°40'0 0.0
2018-May-29 16:58N 34°43' W 076°40'0 0.0
2018-May-29 16:28N 34°43' W 076°40'0 0.0
2018-May-29 15:58N 34°43' W 076°40'0 0.0
2018-May-29 15:28N 34°43' W 076°40'  
Track history (hours):
 
Tides and Currents Weather Stations Pressure Air Temp Water Temp Dewpoint Dewpoint Depression Visibility Wind Speed Wind Dir Waves Ship Positions

Scapoli

Owner: Moore, Claude B, Del Ray Beach, FL. More information available from US FCC via Universal Licensing System and Coast Guard Vessel Documentation Center.

Last reported at 2018-Jun-08 15:15 UTC. Time now 2018-Jun-18 17:38 UTC.
Position N 41°12' W 072°22'.
Warning: this ship's position is 10 days out of date.

Length 29 m.

Type: Pleasure craft. MMSI: 368004130.

Date/timePositionNaut miles runAvg speedWind from/ knotsBaromVisibWave heightAir tempDewpointWater temp
2018-Jun-08 15:15N 41°12' W 072°22'417.1
2018-Jun-08 15:00N 41°11' W 072°28'73 3.2
2018-Jun-07 16:25N 40°45' W 073°58'513.2
2018-Jun-07 16:00N 40°41' W 074°03'5314.5
2018-Jun-07 12:20N 39°48' W 074°03'615.5
2018-Jun-07 11:58N 39°42' W 074°05'63 2.9
2018-Jun-06 14:35N 39°10' W 075°16'217.4
2018-Jun-06 14:27N 39°12' W 075°17'817.9
2018-Jun-06 14:01N 39°18' W 075°23'918.4
2018-Jun-06 13:31N 39°25' W 075°31'917.1
2018-Jun-06 13:00N 39°33' W 075°33'611.2
2018-Jun-06 12:30N 39°33' W 075°40'510.3
2018-Jun-06 12:00N 39°32' W 075°47'5 9.9
2018-Jun-06 11:30N 39°31' W 075°53'714.0
2018-Jun-06 10:58N 39°26' W 076°00'4 7.0
2018-Jun-06 10:27N 39°23' W 076°01'4 9.2
2018-Jun-06 10:00N 39°22' W 075°55'2 3.0
2018-Jun-06 09:30N 39°22' W 075°53'0 0.0
2018-Jun-06 08:51N 39°22' W 075°53'0 0.0
2018-Jun-06 07:51N 39°22' W 075°53'0 0.0
2018-Jun-06 07:24N 39°22' W 075°53'0 0.0
2018-Jun-06 07:00N 39°22' W 075°53'0 0.0
2018-Jun-06 06:18N 39°22' W 075°53'0 0.0
2018-Jun-06 05:54N 39°22' W 075°53'0 0.0
2018-Jun-06 05:24N 39°22' W 075°53'0 0.0
2018-Jun-06 04:45N 39°22' W 075°53'0 0.0
2018-Jun-06 04:06N 39°22' W 075°53'0 0.0
2018-Jun-06 03:36N 39°22' W 075°53'0 0.0
2018-Jun-06 03:30N 39°22' W 075°53'0 0.0
2018-Jun-06 03:00N 39°22' W 075°53'0 0.0
2018-Jun-06 02:30N 39°22' W 075°53'0 0.0
2018-Jun-06 02:00N 39°22' W 075°53'0 0.0
2018-Jun-06 01:27N 39°22' W 075°53'0 0.0
2018-Jun-05 20:15N 39°22' W 075°53'0 0.0
2018-Jun-05 19:57N 39°22' W 075°53'0 0.0
2018-Jun-05 18:39N 39°22' W 075°53'0 0.0
2018-Jun-05 18:21N 39°22' W 075°53'0 0.0
2018-Jun-05 16:36N 39°22' W 075°53'0 0.0
2018-Jun-05 16:27N 39°22' W 075°53'0 0.0
2018-Jun-05 15:18N 39°22' W 075°53'0 0.0
2018-Jun-05 14:57N 39°22' W 075°53'0 0.0
2018-Jun-05 13:42N 39°22' W 075°53'0 0.0
2018-Jun-05 12:06N 39°22' W 075°53'0 0.0
2018-Jun-05 11:39N 39°22' W 075°53'0 0.0
2018-Jun-05 11:30N 39°22' W 075°53'0 0.0
2018-Jun-05 11:00N 39°22' W 075°53'0 0.0
2018-Jun-05 10:30N 39°22' W 075°53'0 0.0
2018-Jun-05 09:57N 39°22' W 075°53'0 0.0
2018-Jun-05 09:18N 39°22' W 075°53'0 0.0
2018-Jun-05 09:00N 39°22' W 075°53'0 0.0
2018-Jun-05 08:24N 39°22' W 075°53'0 0.0
2018-Jun-05 07:48N 39°22' W 075°53'0 0.0
2018-Jun-05 07:24N 39°22' W 075°53'0 0.0
2018-Jun-05 07:00N 39°22' W 075°53'0 0.0
2018-Jun-05 05:42N 39°22' W 075°53'0 0.0
2018-Jun-05 05:27N 39°22' W 075°53'0 0.0
2018-Jun-05 05:00N 39°22' W 075°53'0 0.0
2018-Jun-05 04:30N 39°22' W 075°53'0 0.0
2018-Jun-05 03:39N 39°22' W 075°53'0 0.0
2018-Jun-05 03:27N 39°22' W 075°53'0 0.0
2018-Jun-05 02:45N 39°22' W 075°53'0 0.0
2018-Jun-05 02:30N 39°22' W 075°53'0 0.0
2018-Jun-05 02:00N 39°22' W 075°53'0 0.0
2018-Jun-05 01:30N 39°22' W 075°53'0 0.0
2018-Jun-05 01:00N 39°22' W 075°53'0 0.0
2018-Jun-05 00:30N 39°22' W 075°53'2 0.4
2018-Jun-04 18:47N 39°22' W 075°56'3011.3
2018-Jun-04 16:07N 39°00' W 076°23'415.1
2018-Jun-04 15:51N 38°56' W 076°24'126 4.3
2018-Jun-03 10:23N 36°51' W 076°18'1 1.7
2018-Jun-03 09:59N 36°50' W 076°18'0 0.0
2018-Jun-03 09:29N 36°50' W 076°18'0 0.0
2018-Jun-03 08:59N 36°50' W 076°18'0 0.0
2018-Jun-03 08:29N 36°50' W 076°18'0 0.0
2018-Jun-03 07:59N 36°50' W 076°18'0 0.0
2018-Jun-03 07:29N 36°50' W 076°18'0 0.0
2018-Jun-03 06:59N 36°50' W 076°18'0 0.0
2018-Jun-03 06:29N 36°50' W 076°18'0 0.0
2018-Jun-03 05:59N 36°50' W 076°18'0 0.0
2018-Jun-03 05:29N 36°50' W 076°18'0 0.0
2018-Jun-03 04:59N 36°50' W 076°18'0 0.0
2018-Jun-03 04:29N 36°50' W 076°18'0 0.0
2018-Jun-03 03:59N 36°50' W 076°18'0 0.0
2018-Jun-03 03:29N 36°50' W 076°18'0 0.0
2018-Jun-03 02:59N 36°50' W 076°18'0 0.0
2018-Jun-03 02:29N 36°50' W 076°18'0 0.0
2018-Jun-03 01:59N 36°50' W 076°18'0 0.0
2018-Jun-03 01:29N 36°50' W 076°18'0 0.0
2018-Jun-03 00:59N 36°50' W 076°18'0 0.0
2018-Jun-03 00:29N 36°50' W 076°18'0 0.0
2018-Jun-02 23:59N 36°50' W 076°18'0 0.0
2018-Jun-02 23:29N 36°50' W 076°18'0 0.0
2018-Jun-02 22:59N 36°50' W 076°18'0 0.0
2018-Jun-02 22:29N 36°50' W 076°18'0 0.0
2018-Jun-02 21:59N 36°50' W 076°18'0 0.0
2018-Jun-02 21:29N 36°50' W 076°18'0 0.0
2018-Jun-02 20:56N 36°50' W 076°18'0 0.0
2018-Jun-02 20:17N 36°50' W 076°18'0 0.0
2018-Jun-02 19:59N 36°50' W 076°18'0 0.0
2018-Jun-02 19:29N 36°50' W 076°18'0 0.0
2018-Jun-02 18:55N 36°50' W 076°18'0 0.0
2018-Jun-02 18:28N 36°50' W 076°18'0 0.0
2018-Jun-02 17:58N 36°50' W 076°18'0 0.0
2018-Jun-02 17:25N 36°50' W 076°18'0 0.0
2018-Jun-02 16:58N 36°50' W 076°18'0 0.0
2018-Jun-02 15:34N 36°50' W 076°18'0 0.0
2018-Jun-02 15:25N 36°50' W 076°18'0 0.0
2018-Jun-02 14:58N 36°50' W 076°18'0 0.0
2018-Jun-02 14:25N 36°50' W 076°18'0 0.0
2018-Jun-02 13:52N 36°50' W 076°18'0 0.0
2018-Jun-02 12:49N 36°50' W 076°18'0 0.0
2018-Jun-02 12:28N 36°50' W 076°18'0 0.0
2018-Jun-02 12:01N 36°50' W 076°18'0 0.0
2018-Jun-02 11:30N 36°50' W 076°18'0 0.0
2018-Jun-02 11:00N 36°50' W 076°18'0 0.0
2018-Jun-02 10:30N 36°50' W 076°18'0 0.0
2018-Jun-02 10:00N 36°50' W 076°18'0 0.0
2018-Jun-02 09:30N 36°50' W 076°18'0 0.0
2018-Jun-02 09:00N 36°50' W 076°18'0 0.0
2018-Jun-02 08:30N 36°50' W 076°18'0 0.0
2018-Jun-02 08:00N 36°50' W 076°18'0 0.0
2018-Jun-02 07:30N 36°50' W 076°18'0 0.0
2018-Jun-02 07:00N 36°50' W 076°18'0 0.0
2018-Jun-02 06:30N 36°50' W 076°18'0 0.0
2018-Jun-02 06:00N 36°50' W 076°18'0 0.0
2018-Jun-02 05:30N 36°50' W 076°18'0 0.0
2018-Jun-02 05:00N 36°50' W 076°18'0 0.0
2018-Jun-02 04:30N 36°50' W 076°18'0 0.0
2018-Jun-02 03:59N 36°50' W 076°18'0 0.0
2018-Jun-02 03:29N 36°50' W 076°18'0 0.0
2018-Jun-02 02:56N 36°50' W 076°18'0 0.0
2018-Jun-02 02:29N 36°50' W 076°18'0 0.0
2018-Jun-02 01:59N 36°50' W 076°18'0 0.0
2018-Jun-02 01:29N 36°50' W 076°18'0 0.0
2018-Jun-02 00:59N 36°50' W 076°18'0 0.0
2018-Jun-02 00:29N 36°50' W 076°18'0 0.0
2018-Jun-01 23:59N 36°50' W 076°18'0 0.0
2018-Jun-01 23:29N 36°50' W 076°18'0 0.0
2018-Jun-01 22:59N 36°50' W 076°18'0 0.0
2018-Jun-01 22:29N 36°50' W 076°18'0 0.0
2018-Jun-01 21:59N 36°50' W 076°18'0 0.0
2018-Jun-01 21:29N 36°50' W 076°18'0 0.0
2018-Jun-01 20:59N 36°50' W 076°18'0 0.0
2018-Jun-01 20:28N 36°50' W 076°18'0 0.0
2018-Jun-01 19:58N 36°50' W 076°18'0 0.0
2018-Jun-01 19:28N 36°50' W 076°18'0 0.0
2018-Jun-01 18:58N 36°50' W 076°18'0 0.0
2018-Jun-01 18:28N 36°50' W 076°18'0 0.0
2018-Jun-01 17:58N 36°50' W 076°18'0 0.0
2018-Jun-01 17:28N 36°50' W 076°18'0 0.0
2018-Jun-01 16:58N 36°50' W 076°18'0 0.0
2018-Jun-01 16:25N 36°50' W 076°18'0 0.0
2018-Jun-01 15:55N 36°50' W 076°18'0 0.0
2018-Jun-01 15:28N 36°50' W 076°18'0 0.0
2018-Jun-01 14:58N 36°50' W 076°18'0 0.0
2018-Jun-01 14:28N 36°50' W 076°18'0 0.0
2018-Jun-01 13:58N 36°50' W 076°18'0 0.0
2018-Jun-01 13:28N 36°50' W 076°18'0 0.0
2018-Jun-01 13:00N 36°50' W 076°18'0 0.0
2018-Jun-01 12:30N 36°50' W 076°18'0 0.0
2018-Jun-01 12:00N 36°50' W 076°18'0 0.0
2018-Jun-01 11:30N 36°50' W 076°18'0 0.0
2018-Jun-01 11:00N 36°50' W 076°18'0 0.0
2018-Jun-01 10:30N 36°50' W 076°18'0 0.0
2018-Jun-01 10:00N 36°50' W 076°18'0 0.0
2018-Jun-01 09:30N 36°50' W 076°18'0 0.0
2018-Jun-01 09:00N 36°50' W 076°18'0 0.0
2018-Jun-01 08:30N 36°50' W 076°18'0 0.0
2018-Jun-01 08:00N 36°50' W 076°18'0 0.0
2018-Jun-01 07:30N 36°50' W 076°18'0 0.0
2018-Jun-01 07:00N 36°50' W 076°18'0 0.0
2018-Jun-01 06:30N 36°50' W 076°18'0 0.0
2018-Jun-01 06:00N 36°50' W 076°18'0 0.0
2018-Jun-01 05:30N 36°50' W 076°18'0 0.0
2018-Jun-01 05:00N 36°50' W 076°18'0 0.0
2018-Jun-01 04:30N 36°50' W 076°18'0 0.0
2018-Jun-01 04:00N 36°50' W 076°18'0 0.0
2018-Jun-01 03:30N 36°50' W 076°18'0 0.0
2018-Jun-01 03:00N 36°50' W 076°18'0 0.0
2018-Jun-01 02:30N 36°50' W 076°18'0 0.0
2018-Jun-01 02:00N 36°50' W 076°18'0 0.0
2018-Jun-01 01:30N 36°50' W 076°18'0 0.0
2018-Jun-01 01:00N 36°50' W 076°18'0 0.0
2018-Jun-01 00:30N 36°50' W 076°18'0 0.0
2018-Jun-01 00:00N 36°50' W 076°18'0 0.0
2018-May-31 23:30N 36°50' W 076°18'0 0.0
2018-May-31 23:00N 36°50' W 076°18'0 0.0
2018-May-31 22:27N 36°50' W 076°18'0 0.0
2018-May-31 22:00N 36°50' W 076°18'0 0.0
2018-May-31 18:38N 36°50' W 076°18'1 6.5
2018-May-31 18:30N 36°49' W 076°17'3 5.4
2018-May-31 18:00N 36°46' W 076°18'4 4.2
2018-May-31 17:01N 36°43' W 076°14'0 0.2
2018-May-31 16:58N 36°43' W 076°14'0 0.0
2018-May-31 16:28N 36°43' W 076°14'112 3.9
2018-May-30 11:34N 34°54' W 076°41'1 9.5
2018-May-30 11:28N 34°53' W 076°41'4 8.2
2018-May-30 11:00N 34°49' W 076°41'6 9.6
2018-May-30 10:25N 34°43' W 076°42'1 3.4
2018-May-30 09:58N 34°43' W 076°40'0 0.0
2018-May-30 09:28N 34°43' W 076°40'0 0.0
2018-May-30 08:58N 34°43' W 076°40'0 0.0
2018-May-30 08:28N 34°43' W 076°40'0 0.0
2018-May-30 07:58N 34°43' W 076°40'0 0.0
2018-May-30 07:28N 34°43' W 076°40'0 0.0
2018-May-30 06:55N 34°43' W 076°40'0 0.0
2018-May-30 06:28N 34°43' W 076°40'0 0.0
2018-May-30 05:58N 34°43' W 076°40'0 0.0
2018-May-30 05:28N 34°43' W 076°40'0 0.0
2018-May-30 04:58N 34°43' W 076°40'0 0.0
2018-May-30 04:28N 34°43' W 076°40'0 0.0
2018-May-30 03:58N 34°43' W 076°40'0 0.0
2018-May-30 03:28N 34°43' W 076°40'0 0.0
2018-May-30 02:58N 34°43' W 076°40'0 0.0
2018-May-30 02:28N 34°43' W 076°40'0 0.0
2018-May-30 01:58N 34°43' W 076°40'0 0.0
2018-May-30 01:28N 34°43' W 076°40'0 0.0
2018-May-30 00:58N 34°43' W 076°40'0 0.0
2018-May-30 00:28N 34°43' W 076°40'0 0.0
2018-May-29 23:58N 34°43' W 076°40'0 0.0
2018-May-29 23:28N 34°43' W 076°40'0 0.0
2018-May-29 22:58N 34°43' W 076°40'0 0.0
2018-May-29 22:28N 34°43' W 076°40'0 0.0
2018-May-29 21:58N 34°43' W 076°40'0 0.0
2018-May-29 21:28N 34°43' W 076°40'0 0.0
2018-May-29 20:58N 34°43' W 076°40'0 0.0
2018-May-29 20:28N 34°43' W 076°40'0 0.0
2018-May-29 19:58N 34°43' W 076°40'0 0.0
2018-May-29 19:28N 34°43' W 076°40'0 0.0
2018-May-29 18:58N 34°43' W 076°40'0 0.0
2018-May-29 18:28N 34°43' W 076°40'0 0.0
2018-May-29 17:58N 34°43' W 076°40'0 0.0
2018-May-29 17:28N 34°43' W 076°40'0 0.0
2018-May-29 16:58N 34°43' W 076°40'0 0.0
2018-May-29 16:28N 34°43' W 076°40'0 0.0
2018-May-29 15:58N 34°43' W 076°40'0 0.0
2018-May-29 15:28N 34°43' W 076°40'  

Dump ship's entire track history